Check out our new BloomSky Weather System.

Active alerts


No alerts


Thunder radar  blitzortung!


Rain radar more information rain snow radar


Visit our other weather sites:

Template documentation
and downloads

And another site



Weather Underground History page Text

Daily Summary for May 12, 2017 Units:  Metric    English   Both
« Previous Day
Next Day »
Daily Weekly Monthly Yearly Custom
  High: Low: Average:
Temperature: -17.8 °C 21.8 °C 24.7 °C
Dew Point: -17.8 °C 14.9 °C 18.1 °C
Humidity: Humidity % 48 % 69 %
Wind Speed: 0 km/h 0 km/h 5.6 km/h
Wind Gust: 0 km/h - -
Wind:- - West
Pressure: 0 hPa 1008.7 hPa -
Precipitation: 3.56 mm    
Historical Graphs
 
 
Tabular Data for May 12, 2017
Time Temperature Dew Point Pressure Wind Wind Speed Wind Gust Humidity Rainfall Rate (Hourly)
-17.8 °C -17.8 °C 0 hPa Calm     Humidity % 0 mm
00:01 24.6 °C 22.3 °C 1010.7 hPa South 3.2 km/h 12.9 km/h 87 % 0 mm
00:07 24.6 °C 22.3 °C 1010.7 hPa South 4.8 km/h 12.9 km/h 87 % 0 mm
00:12 24.5 °C 22.2 °C 1010.7 hPa SSW 6.4 km/h 12.9 km/h 87 % 0 mm
00:17 24.5 °C 22.4 °C 1011.1 hPa South 1.6 km/h 12.9 km/h 88 % 0 mm
00:22 24.4 °C 22.3 °C 1010.7 hPa SSE 3.2 km/h 11.3 km/h 88 % 0 mm
00:27 24.4 °C 22.3 °C 1010.7 hPa SSE 4.8 km/h 11.3 km/h 88 % 0 mm
00:32 24.4 °C 22.3 °C 1011.1 hPa SSE 3.2 km/h 9.7 km/h 88 % 0 mm
00:37 24.4 °C 22.5 °C 1011.1 hPa South 1.6 km/h 9.7 km/h 89 % 0 mm
00:42 24.4 °C 22.5 °C 1011.1 hPa SSW 4.8 km/h 9.7 km/h 89 % 0 mm
00:47 24.4 °C 22.5 °C 1010.7 hPa South 4.8 km/h 8 km/h 89 % 0 mm
00:52 24.4 °C 22.5 °C 1010.7 hPa ESE 1.6 km/h 8 km/h 89 % 0 mm
00:57 24.4 °C 22.5 °C 1010.7 hPa SSE 3.2 km/h 8 km/h 89 % 0 mm
01:02 24.3 °C 22.4 °C 1010.7 hPa Calm   6.4 km/h 89 % 0 mm
01:07 24.3 °C 22.4 °C 1010.7 hPa Calm   4.8 km/h 89 % 0 mm
01:12 24.3 °C 22.6 °C 1010.7 hPa Calm   4.8 km/h 90 % 0 mm
01:17 24.3 °C 22.6 °C 1010.4 hPa Calm   3.2 km/h 90 % 0 mm
01:22 24.2 °C 22.5 °C 1010.4 hPa Calm   3.2 km/h 90 % 0 mm
01:27 24.2 °C 22.5 °C 1010.7 hPa Calm   3.2 km/h 90 % 0 mm
01:32 24.2 °C 22.5 °C 1010 hPa ESE 3.2 km/h   90 % 0.25 mm
01:37 24.3 °C 22.7 °C 1010 hPa SSW 1.6 km/h 8 km/h 91 % 2.54 mm
01:42 24.1 °C 22.7 °C 1010 hPa SSW 1.6 km/h 8 km/h 92 % 3.56 mm
01:47 23.9 °C 22.5 °C 1010 hPa Calm   8 km/h 92 % 3.56 mm
01:52 23.8 °C 22.6 °C 1010 hPa South 4.8 km/h 6.4 km/h 93 % 3.56 mm
01:57 23.8 °C 22.8 °C 1010 hPa SSW 6.4 km/h 6.4 km/h 94 % 3.56 mm
02:02 23.6 °C 22.6 °C 1009.7 hPa SSW 4.8 km/h 8 km/h 94 % 3.56 mm
02:07 23.4 °C 22.4 °C 1009.7 hPa SSE 3.2 km/h 9.7 km/h 94 % 3.56 mm
02:12 23.3 °C 22.3 °C 1009.7 hPa SSW 3.2 km/h 9.7 km/h 94 % 3.56 mm
02:17 23.2 °C 22.2 °C 1010 hPa South 3.2 km/h 9.7 km/h 94 % 3.56 mm
02:22 23.2 °C 22.2 °C 1010 hPa SSE 1.6 km/h 6.4 km/h 94 % 3.56 mm
02:27 23 °C 22 °C 1010 hPa SE 4.8 km/h 6.4 km/h 94 % 3.56 mm
02:32 22.9 °C 21.9 °C 1010 hPa Calm   4.8 km/h 94 % 3.05 mm
02:37 22.8 °C 21.8 °C 1010 hPa Calm   4.8 km/h 94 % 0.76 mm
02:42 22.7 °C 21.7 °C 1010 hPa Calm   4.8 km/h 94 % 0 mm
02:47 22.7 °C 21.9 °C 1010 hPa Calm   3.2 km/h 95 % 0 mm
02:52 22.7 °C 21.9 °C 1010 hPa Calm     95 % 0 mm
02:57 22.8 °C 22 °C 1010 hPa Calm     95 % 0 mm
03:02 22.9 °C 22.1 °C 1010 hPa South 1.6 km/h 1.6 km/h 95 % 0 mm
03:03 22.9 °C 22.2 °C 1010 hPa South 1.6 km/h 1.6 km/h 96 % 0 mm
03:08 23 °C 22.3 °C 1010 hPa Calm   3.2 km/h 96 % 0 mm
03:13 23 °C 22.3 °C 1009.7 hPa SSE 3.2 km/h 3.2 km/h 96 % 0 mm
03:18 23.1 °C 22.4 °C 1009.4 hPa SW 3.2 km/h 3.2 km/h 96 % 0 mm
03:23 23.1 °C 22.4 °C 1009.7 hPa Calm   3.2 km/h 96 % 0 mm
03:28 23.1 °C 22.4 °C 1009.4 hPa Calm   3.2 km/h 96 % 0 mm
03:33 23.1 °C 22.4 °C 1009.7 hPa Calm   3.2 km/h 96 % 0 mm
03:38 23.2 °C 22.5 °C 1009.7 hPa Calm   3.2 km/h 96 % 0 mm
03:43 23.2 °C 22.5 °C 1010 hPa Calm   1.6 km/h 96 % 0 mm
03:48 23.3 °C 22.6 °C 1010 hPa Calm   1.6 km/h 96 % 0 mm
03:53 23.3 °C 22.8 °C 1010 hPa Calm   1.6 km/h 97 % 0 mm
03:58 23.3 °C 22.8 °C 1009.7 hPa Calm   1.6 km/h 97 % 0 mm
04:03 23.3 °C 22.6 °C 1009.7 hPa Calm   1.6 km/h 96 % 0 mm
04:08 23.3 °C 22.6 °C 1009.4 hPa Calm   1.6 km/h 96 % 0 mm
04:13 23.3 °C 22.8 °C 1009 hPa Calm     97 % 0 mm
04:18 23.3 °C 22.8 °C 1009 hPa SSW 1.6 km/h   97 % 0 mm
04:23 23.3 °C 22.8 °C 1009 hPa Calm   3.2 km/h 97 % 0 mm
04:26 23.4 °C 22.9 °C 1009.4 hPa Calm   8 km/h 97 % 0 mm
04:31 23.4 °C 22.9 °C 1009 hPa Calm   8 km/h 97 % 0 mm
04:36 23.4 °C 22.9 °C 1008.7 hPa South 3.2 km/h 8 km/h 97 % 0 mm
04:41 23.4 °C 22.9 °C 1008.7 hPa South 4.8 km/h 8 km/h 97 % 0 mm
04:46 23.4 °C 22.9 °C 1008.7 hPa SSW 6.4 km/h 8 km/h 97 % 0 mm
04:51 23.4 °C 22.9 °C 1009 hPa SSW 1.6 km/h 9.7 km/h 97 % 0 mm
04:56 23.4 °C 22.9 °C 1008.7 hPa South 3.2 km/h 9.7 km/h 97 % 0 mm
05:01 23.4 °C 22.9 °C 1008.7 hPa SW 6.4 km/h 9.7 km/h 97 % 0 mm
05:06 23.4 °C 22.9 °C 1008.7 hPa Calm   9.7 km/h 97 % 0 mm
05:11 23.4 °C 22.9 °C 1008.7 hPa SW 3.2 km/h 9.7 km/h 97 % 0 mm
05:16 23.3 °C 22.8 °C 1008.7 hPa SW 1.6 km/h 8 km/h 97 % 0 mm
05:17 23.3 °C 22.8 °C 1008.7 hPa SW 1.6 km/h 8 km/h 97 % 0 mm
05:22 23.3 °C 22.8 °C 1008.7 hPa SW 1.6 km/h 8 km/h 97 % 0 mm
05:27 23.3 °C 22.8 °C 1008.7 hPa Calm   8 km/h 97 % 0 mm
05:32 23.3 °C 22.8 °C 1008.7 hPa West 3.2 km/h 8 km/h 97 % 0 mm
05:37 23.3 °C 22.8 °C 1009 hPa West 3.2 km/h 8 km/h 97 % 0 mm
05:42 23.3 °C 22.8 °C 1009 hPa Calm   11.3 km/h 97 % 0 mm
05:47 23.2 °C 22.7 °C 1009 hPa SSW 3.2 km/h 11.3 km/h 97 % 0 mm
05:52 23.1 °C 22.6 °C 1009 hPa WSW 1.6 km/h 11.3 km/h 97 % 0 mm
05:57 23 °C 22.5 °C 1009 hPa SSW 1.6 km/h 6.4 km/h 97 % 0 mm
06:02 23 °C 22.5 °C 1009 hPa Calm   6.4 km/h 97 % 0 mm
06:07 23 °C 22.5 °C 1009 hPa Calm   4.8 km/h 97 % 0 mm
06:12 23 °C 22.5 °C 1009 hPa WNW 3.2 km/h 4.8 km/h 97 % 0 mm
06:17 22.9 °C 22.4 °C 1009.4 hPa Calm   4.8 km/h 97 % 0 mm
06:22 22.9 °C 22.4 °C 1009.4 hPa Calm   9.7 km/h 97 % 0 mm
06:27 22.9 °C 22.4 °C 1009.4 hPa WNW 1.6 km/h 9.7 km/h 97 % 0 mm
06:32 22.9 °C 22.4 °C 1009.4 hPa Calm   9.7 km/h 97 % 0 mm
06:37 22.8 °C 22.3 °C 1009.4 hPa Calm   6.4 km/h 97 % 0 mm
06:42 22.8 °C 22.3 °C 1009.4 hPa Calm   6.4 km/h 97 % 0 mm
06:47 22.7 °C 22.2 °C 1009.4 hPa Calm   4.8 km/h 97 % 0 mm
06:52 22.7 °C 22 °C 1009.7 hPa Calm   6.4 km/h 96 % 0 mm
06:57 22.6 °C 21.9 °C 1009.7 hPa West 1.6 km/h 6.4 km/h 96 % 0 mm
07:02 22.4 °C 21.7 °C 1009.7 hPa WNW 1.6 km/h 9.7 km/h 96 % 0 mm
07:07 22.3 °C 21.6 °C 1009.7 hPa NW 4.8 km/h 9.7 km/h 96 % 0 mm
07:12 22.3 °C 21.5 °C 1009.7 hPa WNW 3.2 km/h 9.7 km/h 95 % 0 mm
07:17 22.2 °C 21.4 °C 1010 hPa West 6.4 km/h 8 km/h 95 % 0 mm
07:22 22.1 °C 21.1 °C 1010 hPa NW 1.6 km/h 8 km/h 94 % 0 mm
07:27 22 °C 21 °C 1010 hPa North 6.4 km/h 11.3 km/h 94 % 0 mm
07:32 21.9 °C 20.7 °C 1010 hPa West 8 km/h 11.3 km/h 93 % 0 mm
07:37 22.1 °C 20.9 °C 1010 hPa NW 6.4 km/h 14.5 km/h 93 % 0 mm
07:42 22 °C 20.5 °C 1010 hPa West 4.8 km/h 14.5 km/h 91 % 0 mm
07:47 22 °C 19.9 °C 1010.4 hPa NW 8 km/h 14.5 km/h 88 % 0 mm
07:52 22.1 °C 19.5 °C 1010.4 hPa WNW 4.8 km/h 12.9 km/h 85 % 0 mm
07:57 22.2 °C 19.4 °C 1010.4 hPa Calm   12.9 km/h 84 % 0 mm
08:02 22.3 °C 18.7 °C 1010.4 hPa North 8 km/h 12.9 km/h 80 % 0 mm
08:07 22.3 °C 18.7 °C 1010.4 hPa NNW 9.7 km/h 14.5 km/h 80 % 0 mm
08:12 22.3 °C 18.3 °C 1010.4 hPa WNW 8 km/h 14.5 km/h 78 % 0 mm
08:17 22.3 °C 18.1 °C 1010.7 hPa NW 4.8 km/h 14.5 km/h 77 % 0 mm
08:22 22.3 °C 18.1 °C 1010.7 hPa NNW 6.4 km/h 12.9 km/h 77 % 0 mm
08:27 22.4 °C 18.2 °C 1010.7 hPa NNW 8 km/h 12.9 km/h 77 % 0 mm
08:32 22.4 °C 17.5 °C 1010.7 hPa NW 8 km/h 12.9 km/h 74 % 0 mm
08:37 22.5 °C 17.4 °C 1010.7 hPa WNW 9.7 km/h 22.5 km/h 73 % 0 mm
08:42 22.3 °C 16.8 °C 1010.7 hPa NW 8 km/h 22.5 km/h 71 % 0 mm
08:47 22.3 °C 16.8 °C 1010.7 hPa WNW 8 km/h 24.1 km/h 71 % 0 mm
08:52 22.4 °C 17.1 °C 1010.7 hPa NW 6.4 km/h 24.1 km/h 72 % 0 mm
08:57 22.6 °C 16.8 °C 1011.1 hPa West 3.2 km/h 24.1 km/h 70 % 0 mm
09:02 22.6 °C 15.7 °C 1011.1 hPa WNW 14.5 km/h 27.4 km/h 65 % 0 mm
09:07 22.5 °C 15.6 °C 1011.1 hPa NW 17.7 km/h 27.4 km/h 65 % 0 mm
09:12 22.5 °C 15.3 °C 1011.1 hPa NW 8 km/h 27.4 km/h 64 % 0 mm
09:17 22.6 °C 15.7 °C 1011.1 hPa NNW 12.9 km/h 25.7 km/h 65 % 0 mm
09:22 22.7 °C 15.8 °C 1011.1 hPa WNW 8 km/h 25.7 km/h 65 % 0 mm
09:27 22.8 °C 16.1 °C 1011.1 hPa NW 9.7 km/h 24.1 km/h 66 % 0 mm
09:32 23.1 °C 16.4 °C 1011.1 hPa NNW 8 km/h 19.3 km/h 66 % 0 mm
09:37 23.1 °C 16.2 °C 1011.1 hPa NNW 9.7 km/h 19.3 km/h 65 % 0 mm
09:42 23.3 °C 15.9 °C 1011.1 hPa WNW 9.7 km/h 19.3 km/h 63 % 0 mm
09:47 23.3 °C 16.3 °C 1011.1 hPa WNW 8 km/h 19.3 km/h 65 % 0 mm
09:52 23.3 °C 15.4 °C 1011.1 hPa NW 12.9 km/h 19.3 km/h 61 % 0 mm
09:57 23.3 °C 15.6 °C 1011.1 hPa NW 9.7 km/h 20.9 km/h 62 % 0 mm
10:02 23.6 °C 16.1 °C 1011.1 hPa NNW 6.4 km/h 20.9 km/h 63 % 0 mm
10:07 23.7 °C 16.2 °C 1011.1 hPa NNW 8 km/h 20.9 km/h 63 % 0 mm
10:12 23.9 °C 16.2 °C 1011.1 hPa WNW 16.1 km/h 17.7 km/h 62 % 0 mm
10:13 23.9 °C 15.9 °C 1011.1 hPa WNW 8 km/h 17.7 km/h 61 % 0 mm
10:18 24.2 °C 16.5 °C 1011.1 hPa NNE 1.6 km/h 17.7 km/h 62 % 0 mm
10:23 24.5 °C 16 °C 1011.1 hPa WNW 3.2 km/h 17.7 km/h 59 % 0 mm
10:28 24.3 °C 15.8 °C 1011.4 hPa NW 9.7 km/h 16.1 km/h 59 % 0 mm
10:33 24.2 °C 15.7 °C 1011.1 hPa NNW 6.4 km/h 16.1 km/h 59 % 0 mm
10:38 24.4 °C 15.6 °C 1011.4 hPa NW 6.4 km/h 16.1 km/h 58 % 0 mm
10:43 24.6 °C 15.5 °C 1011.4 hPa WNW 12.9 km/h 16.1 km/h 57 % 0 mm
10:48 24.7 °C 15.6 °C 1011.1 hPa NW 9.7 km/h 20.9 km/h 57 % 0 mm
10:53 24.7 °C 15.3 °C 1011.1 hPa NW 6.4 km/h 20.9 km/h 56 % 0 mm
10:58 24.8 °C 15.4 °C 1011.1 hPa NNW 8 km/h 20.9 km/h 56 % 0 mm
11:03 24.9 °C 15.2 °C 1011.1 hPa WNW 6.4 km/h 17.7 km/h 55 % 0 mm
11:08 25.2 °C 14.9 °C 1011.4 hPa NW 11.3 km/h 20.9 km/h 53 % 0 mm
11:13 24.8 °C 15.1 °C 1011.4 hPa NW 9.7 km/h 20.9 km/h 55 % 0 mm
11:18 24.9 °C 15.8 °C 1011.4 hPa NNW 12.9 km/h 20.9 km/h 57 % 0 mm
11:23 24.9 °C 16.1 °C 1011.4 hPa NW 9.7 km/h 20.9 km/h 58 % 0 mm
11:28 25.3 °C 15.6 °C 1011.4 hPa NNW 11.3 km/h 20.9 km/h 55 % 0 mm
11:33 25.3 °C 15.6 °C 1011.1 hPa NNW 6.4 km/h 25.7 km/h 55 % 0 mm
11:38 25.7 °C 16.3 °C 1011.1 hPa NW 9.7 km/h 25.7 km/h 56 % 0 mm
11:43 25.8 °C 16.4 °C 1011.1 hPa NNW 4.8 km/h 25.7 km/h 56 % 0 mm
11:48 26 °C 15.4 °C 1011.1 hPa NW 1.6 km/h 17.7 km/h 52 % 0 mm
11:53 26.1 °C 15.8 °C 1011.1 hPa WNW 4.8 km/h 19.3 km/h 53 % 0 mm
11:58 26.2 °C 15.9 °C 1011.4 hPa NW 9.7 km/h 19.3 km/h 53 % 0 mm
12:03 25.9 °C 16.2 °C 1011.1 hPa East 1.6 km/h 19.3 km/h 55 % 0 mm
12:08 26.2 °C 16.4 °C 1011.1 hPa NW 6.4 km/h 17.7 km/h 55 % 0 mm
12:14 26.2 °C 16.4 °C 1011.1 hPa NNW 6.4 km/h 17.7 km/h 55 % 0 mm
12:18 26.3 °C 16.2 °C 1010.7 hPa NNW 12.9 km/h 25.7 km/h 54 % 0 mm
12:23 26.3 °C 16.2 °C 1010.7 hPa NW 9.7 km/h 25.7 km/h 54 % 0 mm
12:29 26.4 °C 16.6 °C 1010.7 hPa NW 4.8 km/h 25.7 km/h 55 % 0 mm
12:34 26.6 °C 15.9 °C 1010.7 hPa WNW 11.3 km/h 24.1 km/h 52 % 0 mm
12:38 26.8 °C 16.1 °C 1010.7 hPa NW 4.8 km/h 25.7 km/h 52 % 0 mm
12:44 27.1 °C 16.7 °C 1010.7 hPa SW 3.2 km/h 25.7 km/h 53 % 0 mm
12:49 27.1 °C 16.4 °C 1010.7 hPa WNW 11.3 km/h 25.7 km/h 52 % 0 mm
12:54 27.1 °C 16.4 °C 1010.7 hPa NW 11.3 km/h 25.7 km/h 52 % 0 mm
12:59 27.3 °C 16.3 °C 1010.7 hPa North 6.4 km/h 27.4 km/h 51 % 0 mm
13:04 27.2 °C 16.2 °C 1010.4 hPa WNW 4.8 km/h 27.4 km/h 51 % 0 mm
13:09 27.4 °C 16.4 °C 1010.4 hPa NNE 6.4 km/h 27.4 km/h 51 % 0 mm
13:14 27.3 °C 15.6 °C 1010.4 hPa NW 16.1 km/h 20.9 km/h 49 % 0 mm
13:19 27.5 °C 16.5 °C 1010.4 hPa West 4.8 km/h 22.5 km/h 51 % 0 mm
13:24 27.6 °C 16.2 °C 1010.4 hPa WNW 8 km/h 22.5 km/h 50 % 0 mm
13:29 27.6 °C 16.6 °C 1010 hPa West 22.5 km/h 22.5 km/h 51 % 0 mm
13:34 27.5 °C 16.1 °C 1010.4 hPa NNW 6.4 km/h 25.7 km/h 50 % 0 mm
13:39 27.7 °C 16 °C 1010.4 hPa NNW 6.4 km/h 25.7 km/h 49 % 0 mm
13:44 27.7 °C 16.3 °C 1010 hPa NNW 6.4 km/h 25.7 km/h 50 % 0 mm
13:49 27.7 °C 16.3 °C 1010 hPa WSW 1.6 km/h 24.1 km/h 50 % 0 mm
13:54 27.8 °C 15.8 °C 1010 hPa NNW 14.5 km/h 24.1 km/h 48 % 0 mm
13:59 27.8 °C 15.8 °C 1010 hPa NW 14.5 km/h 27.4 km/h 48 % 0 mm
14:04 27.7 °C 16.3 °C 1010 hPa North 11.3 km/h 27.4 km/h 50 % 0 mm
14:09 27.7 °C 16.6 °C 1010 hPa NW 11.3 km/h 27.4 km/h 51 % 0 mm
14:14 27.7 °C 16.6 °C 1010 hPa NE 11.3 km/h 22.5 km/h 51 % 0 mm
14:19 27.9 °C 17.1 °C 1010 hPa NNW 8 km/h 22.5 km/h 52 % 0 mm
14:24 28.1 °C 16.1 °C 1010 hPa NW 9.7 km/h 22.5 km/h 48 % 0 mm
14:29 27.9 °C 16.8 °C 1010 hPa NW 12.9 km/h 25.7 km/h 51 % 0 mm
14:34 28.1 °C 17 °C 1010 hPa WSW 3.2 km/h 29 km/h 51 % 0 mm
14:39 28.1 °C 16.4 °C 1010 hPa NW 6.4 km/h 29 km/h 49 % 0 mm
14:44 28.1 °C 16.7 °C 1010 hPa NW 12.9 km/h 29 km/h 50 % 0 mm
14:49 28.3 °C 16.9 °C 1009.7 hPa NW 16.1 km/h 29 km/h 50 % 0 mm
14:54 28.2 °C 16.8 °C 1009.7 hPa NE 9.7 km/h 29 km/h 50 % 0 mm
14:59 28.3 °C 16.9 °C 1009.7 hPa NW 8 km/h 24.1 km/h 50 % 0 mm
15:04 28.5 °C 17.1 °C 1009.7 hPa NNW 11.3 km/h 25.7 km/h 50 % 0 mm
15:09 28.1 °C 16.7 °C 1009.7 hPa NNE 9.7 km/h 25.7 km/h 50 % 0 mm
15:14 27.9 °C 16.5 °C 1009.4 hPa WNW 6.4 km/h 25.7 km/h 50 % 0 mm
15:19 28 °C 16.6 °C 1009.4 hPa NW 14.5 km/h 24.1 km/h 50 % 0 mm
15:24 28.1 °C 17 °C 1009.4 hPa WNW 12.9 km/h 25.7 km/h 51 % 0 mm
15:29 28.1 °C 16.4 °C 1009.4 hPa East 4.8 km/h 25.7 km/h 49 % 0 mm
15:34 28.2 °C 16.8 °C 1009.4 hPa North 14.5 km/h 25.7 km/h 50 % 0 mm
15:39 28.3 °C 16.9 °C 1009.4 hPa South 3.2 km/h 24.1 km/h 50 % 0 mm
15:44 28 °C 16.9 °C 1009.4 hPa WNW 9.7 km/h 24.1 km/h 51 % 0 mm
15:49 28 °C 16.6 °C 1009.4 hPa WNW 12.9 km/h 25.7 km/h 50 % 0 mm
15:54 27.8 °C 16.1 °C 1009.4 hPa WNW 8 km/h 25.7 km/h 49 % 0 mm
15:59 27.9 °C 16.2 °C 1009.4 hPa NNW 6.4 km/h 25.7 km/h 49 % 0 mm
16:04 27.5 °C 16.1 °C 1009.4 hPa NW 6.4 km/h 22.5 km/h 50 % 0 mm
16:09 27.5 °C 16.1 °C 1009.4 hPa NW 14.5 km/h 20.9 km/h 50 % 0 mm
16:14 27.4 °C 16.4 °C 1009.4 hPa NNW 9.7 km/h 22.5 km/h 51 % 0 mm
16:19 27.1 °C 16.1 °C 1009.4 hPa NNW 6.4 km/h 22.5 km/h 51 % 0 mm
16:24 27.3 °C 16.6 °C 1009 hPa SW 8 km/h 22.5 km/h 52 % 0 mm
16:29 27.3 °C 16 °C 1009 hPa NNW 11.3 km/h 17.7 km/h 50 % 0 mm
16:34 27.6 °C 16.6 °C 1009.4 hPa WNW 16.1 km/h 24.1 km/h 51 % 0 mm
16:39 27.7 °C 16 °C 1009 hPa NW 4.8 km/h 24.1 km/h 49 % 0 mm
16:44 27.8 °C 16.4 °C 1009 hPa NW 6.4 km/h 24.1 km/h 50 % 0 mm
16:49 27.8 °C 16.4 °C 1009 hPa NW 9.7 km/h 20.9 km/h 50 % 0 mm
16:54 27.9 °C 16.5 °C 1009 hPa WNW 9.7 km/h 19.3 km/h 50 % 0 mm
16:59 28.2 °C 16.8 °C 1009 hPa NNW 3.2 km/h 20.9 km/h 50 % 0 mm
17:04 28.1 °C 16.4 °C 1009 hPa NNW 9.7 km/h 20.9 km/h 49 % 0 mm
17:09 28.1 °C 16.7 °C 1009 hPa NNW 6.4 km/h 20.9 km/h 50 % 0 mm
17:11 28.2 °C 16.8 °C 1009 hPa NNW 16.1 km/h 19.3 km/h 50 % 0 mm
17:16 28.2 °C 16.8 °C 1009 hPa West 8 km/h 19.3 km/h 50 % 0 mm
17:21 28.3 °C 16.9 °C 1008.7 hPa SW 1.6 km/h 19.3 km/h 50 % 0 mm
17:26 28.6 °C 16.5 °C 1009 hPa NNW 9.7 km/h 19.3 km/h 48 % 0 mm
17:31 28.6 °C 16.8 °C 1008.7 hPa NNW 8 km/h 17.7 km/h 49 % 0 mm
17:36 28.4 °C 16.3 °C 1008.7 hPa NW 6.4 km/h 27.4 km/h 48 % 0 mm
17:41 28.3 °C 16.9 °C 1008.7 hPa NW 6.4 km/h 27.4 km/h 50 % 0 mm
17:46 28.3 °C 16.9 °C 1008.7 hPa WNW 12.9 km/h 27.4 km/h 50 % 0 mm
17:51 27.8 °C 16.4 °C 1008.7 hPa WNW 4.8 km/h 22.5 km/h 50 % 0 mm
17:56 27.5 °C 16.5 °C 1009 hPa NW 6.4 km/h 19.3 km/h 51 % 0 mm
18:01 27.5 °C 16.8 °C 1009 hPa WNW 3.2 km/h 19.3 km/h 52 % 0 mm
18:06 27.6 °C 16.6 °C 1009 hPa NNW 9.7 km/h 17.7 km/h 51 % 0 mm
18:11 27.3 °C 16 °C 1009 hPa NW 6.4 km/h 17.7 km/h 50 % 0 mm
18:16 27.1 °C 16.1 °C 1009 hPa NW 11.3 km/h 17.7 km/h 51 % 0 mm
18:21 27.1 °C 16.1 °C 1008.7 hPa NNW 11.3 km/h 17.7 km/h 51 % 0 mm
18:26 27.4 °C 16.4 °C 1009 hPa NNW 1.6 km/h 17.7 km/h 51 % 0 mm
18:31 27.5 °C 16.1 °C 1008.7 hPa NNW 16.1 km/h 27.4 km/h 50 % 0 mm
18:36 27.6 °C 15.9 °C 1008.7 hPa NNW 9.7 km/h 27.4 km/h 49 % 0 mm
18:41 27.7 °C 16 °C 1009 hPa North 6.4 km/h 27.4 km/h 49 % 0 mm
18:46 27.6 °C 15.9 °C 1009 hPa WNW 11.3 km/h 19.3 km/h 49 % 0 mm
18:51 27.3 °C 16 °C 1009 hPa NW 17.7 km/h 19.3 km/h 50 % 0 mm
18:56 27 °C 15.7 °C 1009 hPa NW 8 km/h 20.9 km/h 50 % 0 mm
19:01 27 °C 16 °C 1009 hPa NNW 14.5 km/h 20.9 km/h 51 % 0 mm
19:06 27.1 °C 16.1 °C 1009 hPa WNW 6.4 km/h 20.9 km/h 51 % 0 mm
19:11 27.1 °C 16.1 °C 1009 hPa WNW 6.4 km/h 17.7 km/h 51 % 0 mm
19:16 26.9 °C 15.9 °C 1009 hPa NW 8 km/h 19.3 km/h 51 % 0 mm
19:21 26.8 °C 15.8 °C 1009 hPa NW 11.3 km/h 20.9 km/h 51 % 0 mm
19:26 26.6 °C 15.6 °C 1009 hPa NNW 9.7 km/h 20.9 km/h 51 % 0 mm
19:31 26.5 °C 15.5 °C 1009.4 hPa NW 6.4 km/h 20.9 km/h 51 % 0 mm
19:36 26.4 °C 15.8 °C 1009 hPa West 8 km/h 20.9 km/h 52 % 0 mm
19:41 26.3 °C 15.7 °C 1009.4 hPa NW 6.4 km/h 17.7 km/h 52 % 0 mm
19:46 26.1 °C 15.5 °C 1009.4 hPa NW 6.4 km/h 19.3 km/h 52 % 0 mm
19:51 26 °C 15.4 °C 1009.4 hPa NW 6.4 km/h 19.3 km/h 52 % 0 mm
19:56 25.9 °C 15.3 °C 1009.4 hPa NNW 6.4 km/h 19.3 km/h 52 % 0 mm
20:02 25.8 °C 15.5 °C 1009.4 hPa NW 14.5 km/h 19.3 km/h 53 % 0 mm
20:07 25.7 °C 15.4 °C 1009.4 hPa NW 12.9 km/h 20.9 km/h 53 % 0 mm
20:12 25.6 °C 15.3 °C 1009.4 hPa NW 11.3 km/h 20.9 km/h 53 % 0 mm
20:17 25.4 °C 15.1 °C 1009.4 hPa North 12.9 km/h 20.9 km/h 53 % 0 mm
20:22 25.3 °C 15.3 °C 1009.7 hPa North 4.8 km/h 17.7 km/h 54 % 0 mm
20:27 25.2 °C 15.2 °C 1009.7 hPa NW 6.4 km/h 17.7 km/h 54 % 0 mm
20:32 25.1 °C 15.4 °C 1009.7 hPa NW 4.8 km/h 12.9 km/h 55 % 0 mm
20:37 25.1 °C 15.4 °C 1009.7 hPa NW 9.7 km/h 12.9 km/h 55 % 0 mm
20:42 25 °C 15.3 °C 1010 hPa North 4.8 km/h 11.3 km/h 55 % 0 mm
20:47 24.9 °C 15.5 °C 1010 hPa NNW 6.4 km/h 11.3 km/h 56 % 0 mm
20:52 24.8 °C 15.4 °C 1010 hPa NNW 3.2 km/h 11.3 km/h 56 % 0 mm
20:57 24.7 °C 15.6 °C 1010 hPa NNW 3.2 km/h 11.3 km/h 57 % 0 mm
21:02 24.6 °C 15.5 °C 1010 hPa NW 3.2 km/h 11.3 km/h 57 % 0 mm
21:07 24.5 °C 15.4 °C 1010 hPa NW 3.2 km/h 9.7 km/h 57 % 0 mm
21:12 24.4 °C 15.6 °C 1010 hPa NNW 4.8 km/h 9.7 km/h 58 % 0 mm
21:17 24.3 °C 15.5 °C 1010 hPa NW 1.6 km/h 9.7 km/h 58 % 0 mm
21:22 24.2 °C 15.7 °C 1010 hPa NNW 3.2 km/h 9.7 km/h 59 % 0 mm
21:24 24.1 °C 15.6 °C 1010 hPa NNW 3.2 km/h 9.7 km/h 59 % 0 mm
21:29 24 °C 15.5 °C 1010 hPa NNW 3.2 km/h 8 km/h 59 % 0 mm
21:34 23.8 °C 15.6 °C 1010 hPa NW 1.6 km/h 6.4 km/h 60 % 0 mm
21:39 23.7 °C 15.5 °C 1010 hPa NW 1.6 km/h 6.4 km/h 60 % 0 mm
21:44 23.6 °C 15.6 °C 1010.4 hPa NW 3.2 km/h 6.4 km/h 61 % 0 mm
21:49 23.5 °C 15.5 °C 1010.4 hPa Calm   6.4 km/h 61 % 0 mm
21:54 23.3 °C 15.6 °C 1010.4 hPa Calm   6.4 km/h 62 % 0 mm
21:59 23.3 °C 15.6 °C 1010.7 hPa NW 1.6 km/h 6.4 km/h 62 % 0 mm
22:04 23.3 °C 15.6 °C 1010.7 hPa WNW 3.2 km/h 6.4 km/h 62 % 0 mm
22:09 23.2 °C 15.5 °C 1010.7 hPa Calm   6.4 km/h 62 % 0 mm
22:14 23.1 °C 15.7 °C 1011.1 hPa West 1.6 km/h 6.4 km/h 63 % 0 mm
22:19 22.9 °C 15.5 °C 1011.1 hPa Calm   4.8 km/h 63 % 0 mm
22:24 22.9 °C 15.7 °C 1011.1 hPa WNW 1.6 km/h 4.8 km/h 64 % 0 mm
22:29 22.9 °C 15.7 °C 1011.1 hPa WNW 4.8 km/h 9.7 km/h 64 % 0 mm
22:34 22.9 °C 15.7 °C 1011.1 hPa NW 3.2 km/h 9.7 km/h 64 % 0 mm
22:39 22.9 °C 15.7 °C 1011.1 hPa NW 3.2 km/h 9.7 km/h 64 % 0 mm
22:44 22.9 °C 15.7 °C 1011.4 hPa NW 11.3 km/h 12.9 km/h 64 % 0 mm
22:49 22.9 °C 15.7 °C 1011.1 hPa Calm   14.5 km/h 64 % 0 mm
22:54 22.7 °C 15.5 °C 1011.1 hPa NW 3.2 km/h 14.5 km/h 64 % 0 mm
22:56 22.7 °C 15.5 °C 1011.1 hPa Calm   14.5 km/h 64 % 0 mm
23:01 22.7 °C 15.5 °C 1011.1 hPa Calm   6.4 km/h 64 % 0 mm
23:06 22.5 °C 15.6 °C 1011.4 hPa Calm   6.4 km/h 65 % 0 mm
23:11 22.3 °C 15.6 °C 1011.4 hPa Calm   4.8 km/h 66 % 0 mm
23:16 22.1 °C 15.7 °C 1011.4 hPa NW 1.6 km/h 6.4 km/h 67 % 0 mm
23:21 22.1 °C 15.7 °C 1011.4 hPa North 4.8 km/h 11.3 km/h 67 % 0 mm
23:26 22.2 °C 15.8 °C 1011.4 hPa NW 3.2 km/h 11.3 km/h 67 % 0 mm
23:31 22.2 °C 15.8 °C 1011.4 hPa NNW 3.2 km/h 11.3 km/h 67 % 0 mm
23:36 22.1 °C 15.7 °C 1011.7 hPa NW 4.8 km/h 9.7 km/h 67 % 0 mm
23:41 22 °C 15.6 °C 1011.7 hPa NNW 4.8 km/h 8 km/h 67 % 0 mm
23:46 21.9 °C 15.5 °C 1011.7 hPa WNW 4.8 km/h 8 km/h 67 % 0 mm
23:51 21.9 °C 15.7 °C 1011.7 hPa NNW 4.8 km/h 8 km/h 68 % 0 mm
23:56 21.8 °C 15.6 °C 1011.7 hPa NW 1.6 km/h 8 km/h 68 % 0 mm
Spring, Texas: Villages of Bridgestone
Compliments of Weather Underground - 2.75 mb

Script developed by  Jim McMurry - jmcmurry@mwt.net Adapted for the template by  Wim van der Kuil - Leuven-Template.eu

You find our weather info also at:

UK Metoffice

WeatherCloud

Weather Underground

Mid-South Weather Network

AWEKAS

Citizen Weather Observer Program (CWOP)

HAMweather, WeatherForYou, PWS Weather

Equipment we use:

Weather-station
Davis Vantage Vue

Weather-program
Meteohub

Weather-server
Debian 7.9 x86 (Guest)

Provider
DreamHost

Davis Vantage Vue

Meteohub

Debian 7.9 x86 (Guest)

DreamHost